Time;durP1;ratioP1;P1;durP2;ratioP2;P2;SDS_P1;SDS_P2;PMS_P1;PMS_P2;Temp;Humidity;BMP_temperature;BMP_pressure;BME280_temperature;BME280_humidity;BME280_pressure;Samples;Min_cycle;Max_cycle;Signal;HPM_P1;HPM_P2
2022/04/03 00:02:07;;;;;;;;;;;20.00;33.50;;;;;;5028010;28;20011;-59
2022/04/03 00:04:33;;;;;;;;;;;19.90;33.30;;;;;;5045855;28;19959;-59
2022/04/03 00:07:00;;;;;;;;;;;20.00;33.40;;;;;;5063689;28;19912;-58
2022/04/03 00:09:26;;;;;;;;;;;20.00;33.40;;;;;;5046601;28;20276;-59
2022/04/03 00:11:51;;;;;;;;;;;20.00;33.50;;;;;;5047460;28;19919;-59
2022/04/03 00:14:17;;;;;;;;;;;20.00;33.50;;;;;;5040731;28;19916;-59
2022/04/03 00:16:42;;;;;;;;;;;19.90;33.40;;;;;;5046472;28;19920;-59
2022/04/03 00:19:08;;;;;;;;;;;19.90;33.40;;;;;;5043077;28;19967;-59
2022/04/03 00:21:35;;;;;;;;;;;19.90;33.30;;;;;;5050402;28;19924;-59
2022/04/03 00:24:00;;;;;;;;;;;19.90;33.40;;;;;;5026173;28;19917;-59
2022/04/03 00:26:26;;;;;;;;;;;19.90;33.20;;;;;;5022447;28;20455;-59
2022/04/03 00:28:52;;;;;;;;;;;19.90;34.00;;;;;;5040665;28;19913;-59
2022/04/03 00:31:17;;;;;;;;;;;19.90;33.30;;;;;;5039590;28;19950;-59
2022/04/03 00:33:43;;;;;;;;;;;19.90;33.20;;;;;;5028909;28;19924;-59
2022/04/03 00:36:09;;;;;;;;;;;19.80;33.30;;;;;;5040955;28;19920;-59
2022/04/03 00:38:35;;;;;;;;;;;19.80;33.30;;;;;;5027156;28;19916;-59
2022/04/03 00:41:01;;;;;;;;;;;19.80;33.20;;;;;;5042773;28;19947;-59
2022/04/03 00:43:26;;;;;;;;;;;19.80;33.30;;;;;;5029176;28;19917;-59
2022/04/03 00:45:52;;;;;;;;;;;19.80;33.30;;;;;;5013752;28;20384;-59
2022/04/03 00:48:17;;;;;;;;;;;19.80;33.20;;;;;;5024448;28;20335;-59
2022/04/03 00:50:44;;;;;;;;;;;19.80;33.30;;;;;;5023043;28;19931;-59
2022/04/03 00:53:09;;;;;;;;;;;19.70;33.20;;;;;;5022497;28;20006;-59
2022/04/03 00:55:35;;;;;;;;;;;19.70;33.20;;;;;;5003659;28;19988;-58
2022/04/03 00:58:01;;;;;;;;;;;19.70;33.20;;;;;;5028802;28;20004;-59
2022/04/03 01:00:26;;;;;;;;;;;19.70;33.20;;;;;;5028673;28;19917;-59
2022/04/03 01:02:52;;;;;;;;;;;19.70;33.20;;;;;;5026684;28;19921;-60
2022/04/03 01:05:17;;;;;;;;;;;19.60;33.10;;;;;;5042501;28;19917;-59
2022/04/03 01:07:43;;;;;;;;;;;19.60;33.10;;;;;;5010231;28;19917;-59
2022/04/03 01:10:08;;;;;;;;;;;19.60;33.10;;;;;;5012946;28;19917;-59
2022/04/03 01:12:46;;;;;;;;;;;19.60;33.10;;;;;;5026428;28;20023;-59
2022/04/03 01:15:13;;;;;;;;;;;19.60;33.10;;;;;;5037207;28;19921;-59
2022/04/03 01:17:38;;;;;;;;;;;19.60;33.10;;;;;;5028057;28;20011;-59
2022/04/03 01:20:04;;;;;;;;;;;19.60;33.10;;;;;;5010859;28;20012;-59
2022/04/03 01:22:30;;;;;;;;;;;19.60;33.40;;;;;;5037142;28;19982;-59
2022/04/03 01:24:55;;;;;;;;;;;19.70;33.30;;;;;;5020233;28;19923;-59
2022/04/03 01:27:21;;;;;;;;;;;19.90;33.40;;;;;;5042922;28;20027;-59
2022/04/03 01:29:48;;;;;;;;;;;20.00;33.50;;;;;;5039674;28;19913;-59
2022/04/03 01:32:13;;;;;;;;;;;20.20;33.30;;;;;;5048560;28;20146;-59
2022/04/03 01:34:39;;;;;;;;;;;20.40;33.10;;;;;;5038389;28;20326;-59
2022/04/03 01:37:04;;;;;;;;;;;20.70;32.80;;;;;;5052481;28;19951;-59
2022/04/03 01:39:30;;;;;;;;;;;20.90;32.40;;;;;;5062701;28;19916;-59
2022/04/03 01:41:56;;;;;;;;;;;21.20;32.20;;;;;;5042322;28;19920;-59
2022/04/03 01:44:21;;;;;;;;;;;21.30;31.90;;;;;;5032188;28;19916;-59
2022/04/03 01:46:46;;;;;;;;;;;21.30;31.70;;;;;;5063740;28;19920;-59
2022/04/03 01:49:12;;;;;;;;;;;21.40;31.70;;;;;;5044495;28;19956;-59
2022/04/03 01:51:37;;;;;;;;;;;21.40;31.70;;;;;;5051937;28;20054;-59
2022/04/03 01:54:03;;;;;;;;;;;21.40;31.50;;;;;;5062255;28;19928;-59
2022/04/03 01:56:29;;;;;;;;;;;21.50;31.50;;;;;;5037957;28;20328;-59
2022/04/03 01:58:54;;;;;;;;;;;21.60;31.50;;;;;;5063813;28;19944;-59
2022/04/03 02:01:20;;;;;;;;;;;21.60;31.50;;;;;;5033229;28;19982;-59
2022/04/03 02:03:46;;;;;;;;;;;21.60;31.40;;;;;;5065536;28;19919;-59
2022/04/03 02:06:13;;;;;;;;;;;21.60;31.30;;;;;;5034520;28;19928;-59
2022/04/03 02:08:38;;;;;;;;;;;21.60;31.20;;;;;;5049323;28;19916;-59
2022/04/03 02:11:04;;;;;;;;;;;21.60;31.10;;;;;;5049948;28;19991;-59
2022/04/03 02:13:29;;;;;;;;;;;21.70;31.20;;;;;;5046900;28;19917;-59
2022/04/03 02:15:55;;;;;;;;;;;21.60;31.20;;;;;;5065143;28;19921;-59
2022/04/03 02:18:20;;;;;;;;;;;21.50;31.20;;;;;;5046037;28;20747;-59
2022/04/03 02:20:46;;;;;;;;;;;21.50;31.20;;;;;;5040037;28;19928;-59
2022/04/03 02:23:11;;;;;;;;;;;21.50;31.30;;;;;;5028623;28;19952;-59
2022/04/03 02:25:37;;;;;;;;;;;21.50;31.30;;;;;;5017506;28;19948;-59
2022/04/03 02:28:03;;;;;;;;;;;21.40;31.20;;;;;;5022337;28;19920;-59
2022/04/03 02:30:29;;;;;;;;;;;21.40;31.30;;;;;;5030548;28;20012;-59
2022/04/03 02:32:54;;;;;;;;;;;21.40;31.40;;;;;;5013444;28;20047;-59
2022/04/03 02:35:20;;;;;;;;;;;21.30;31.40;;;;;;5031924;28;20015;-59
2022/04/03 02:37:45;;;;;;;;;;;21.20;31.50;;;;;;5021150;28;19920;-59
2022/04/03 02:40:11;;;;;;;;;;;21.20;31.60;;;;;;5028200;28;20397;-59
2022/04/03 02:42:37;;;;;;;;;;;21.20;31.70;;;;;;5030373;28;19920;-59
2022/04/03 02:45:03;;;;;;;;;;;21.10;31.60;;;;;;5046215;28;19917;-60
2022/04/03 02:47:29;;;;;;;;;;;21.10;31.70;;;;;;5038203;28;19913;-59
2022/04/03 02:49:54;;;;;;;;;;;21.00;31.70;;;;;;5032211;28;19928;-59
2022/04/03 02:52:20;;;;;;;;;;;21.00;31.80;;;;;;5025739;28;19920;-59
2022/04/03 02:54:46;;;;;;;;;;;20.90;31.70;;;;;;5011475;28;19920;-59
2022/04/03 02:57:12;;;;;;;;;;;20.90;31.70;;;;;;5043965;28;19927;-59
2022/04/03 02:59:37;;;;;;;;;;;20.90;31.70;;;;;;5025548;28;19967;-59
2022/04/03 03:02:03;;;;;;;;;;;20.90;31.70;;;;;;5029067;28;20356;-59
2022/04/03 03:04:28;;;;;;;;;;;20.90;31.80;;;;;;5023898;28;19913;-59
2022/04/03 03:06:54;;;;;;;;;;;20.80;31.80;;;;;;5026889;28;19917;-59
2022/04/03 03:09:19;;;;;;;;;;;20.90;31.80;;;;;;5042061;28;19917;-59
2022/04/03 03:11:45;;;;;;;;;;;20.90;31.60;;;;;;5043898;28;20368;-59
2022/04/03 03:14:10;;;;;;;;;;;20.90;31.60;;;;;;5046315;28;19913;-59
2022/04/03 03:16:35;;;;;;;;;;;20.90;31.60;;;;;;5037410;28;20427;-59
2022/04/03 03:19:01;;;;;;;;;;;21.00;32.00;;;;;;5028757;28;19986;-59
2022/04/03 03:21:26;;;;;;;;;;;20.90;32.20;;;;;;5028517;28;19944;-59
2022/04/03 03:23:52;;;;;;;;;;;20.80;32.30;;;;;;5027728;28;20028;-59
2022/04/03 03:26:17;;;;;;;;;;;20.80;32.50;;;;;;5043722;28;19917;-59
2022/04/03 03:28:43;;;;;;;;;;;20.80;32.60;;;;;;5015563;28;20007;-59
2022/04/03 03:31:08;;;;;;;;;;;20.70;32.60;;;;;;5022707;28;19920;-59
2022/04/03 03:33:34;;;;;;;;;;;20.70;32.80;;;;;;5024196;28;19970;-59
2022/04/03 03:35:59;;;;;;;;;;;20.60;32.80;;;;;;5008507;28;19925;-59
2022/04/03 03:38:25;;;;;;;;;;;20.70;32.80;;;;;;5042021;28;20422;-59
2022/04/03 03:40:51;;;;;;;;;;;20.70;32.80;;;;;;5044979;28;19959;-59
2022/04/03 03:43:16;;;;;;;;;;;20.70;32.60;;;;;;5044434;28;19947;-59
2022/04/03 03:45:42;;;;;;;;;;;20.80;32.30;;;;;;5004936;28;19917;-59
2022/04/03 03:48:10;;;;;;;;;;;20.80;32.20;;;;;;5012892;28;19917;-59
2022/04/03 03:50:36;;;;;;;;;;;20.90;32.10;;;;;;5043327;28;19956;-59
2022/04/03 03:53:01;;;;;;;;;;;20.90;32.00;;;;;;5028171;28;19956;-59
2022/04/03 03:55:27;;;;;;;;;;;20.90;31.90;;;;;;5037959;28;19913;-59
2022/04/03 03:57:52;;;;;;;;;;;20.90;31.80;;;;;;5024147;28;20495;-59
2022/04/03 04:00:18;;;;;;;;;;;21.00;31.80;;;;;;5040312;28;19928;-59
2022/04/03 04:02:43;;;;;;;;;;;21.00;31.80;;;;;;5021597;28;19974;-59
2022/04/03 04:05:09;;;;;;;;;;;21.00;31.80;;;;;;5024927;28;20724;-59
2022/04/03 04:07:39;;;;;;;;;;;21.00;31.70;;;;;;5012463;28;19924;-59
2022/04/03 04:10:04;;;;;;;;;;;20.90;31.60;;;;;;5027187;28;19916;-59
2022/04/03 04:12:30;;;;;;;;;;;20.90;31.60;;;;;;5032987;28;19935;-59
2022/04/03 04:14:55;;;;;;;;;;;20.90;31.60;;;;;;5010246;28;20046;-59
2022/04/03 04:17:21;;;;;;;;;;;20.90;31.60;;;;;;5028599;28;19975;-59
2022/04/03 04:19:46;;;;;;;;;;;20.90;31.50;;;;;;5022935;28;19920;-59
2022/04/03 04:25:14;;;;;;;;;;;20.90;31.60;;;;;;5052650;28;20015;-59
2022/04/03 04:27:40;;;;;;;;;;;20.90;31.80;;;;;;5024695;28;19917;-59
2022/04/03 04:30:07;;;;;;;;;;;20.80;31.90;;;;;;5017729;28;19966;-59
2022/04/03 04:32:32;;;;;;;;;;;20.80;31.90;;;;;;5041957;28;19919;-59
2022/04/03 04:34:58;;;;;;;;;;;20.80;31.90;;;;;;5028924;28;20742;-59
2022/04/03 04:37:23;;;;;;;;;;;20.80;31.90;;;;;;5011732;28;19920;-59
2022/04/03 04:39:49;;;;;;;;;;;20.80;32.00;;;;;;5011325;28;19917;-59
2022/04/03 04:42:14;;;;;;;;;;;20.80;31.90;;;;;;5030014;28;19978;-59
2022/04/03 04:44:40;;;;;;;;;;;20.80;31.80;;;;;;5043579;28;19999;-59
2022/04/03 04:47:05;;;;;;;;;;;20.90;32.00;;;;;;5012047;28;20378;-59
2022/04/03 04:49:31;;;;;;;;;;;20.80;31.80;;;;;;5044855;28;19972;-59
2022/04/03 04:51:56;;;;;;;;;;;20.90;31.70;;;;;;5021830;28;20339;-59
2022/04/03 04:54:21;;;;;;;;;;;20.90;31.60;;;;;;5040266;28;19912;-59
2022/04/03 04:56:47;;;;;;;;;;;20.90;31.70;;;;;;5044982;28;20074;-59
2022/04/03 04:59:12;;;;;;;;;;;20.90;31.80;;;;;;5021352;28;19921;-59
2022/04/03 05:01:38;;;;;;;;;;;20.80;31.70;;;;;;5016599;28;19921;-59
2022/04/03 05:04:03;;;;;;;;;;;20.80;32.50;;;;;;5007905;28;19917;-59
2022/04/03 05:06:29;;;;;;;;;;;20.80;31.80;;;;;;5011010;28;20385;-59
2022/04/03 05:08:55;;;;;;;;;;;20.90;31.80;;;;;;5024047;28;19956;-59
2022/04/03 05:11:20;;;;;;;;;;;20.90;31.70;;;;;;5044508;28;19916;-59
2022/04/03 05:13:46;;;;;;;;;;;20.80;31.70;;;;;;5009349;28;20381;-59
2022/04/03 05:16:12;;;;;;;;;;;20.80;31.60;;;;;;5037894;28;19932;-59
2022/04/03 05:18:37;;;;;;;;;;;20.80;31.60;;;;;;5029895;28;19919;-59
2022/04/03 05:21:04;;;;;;;;;;;20.80;31.70;;;;;;5014996;28;20399;-59
2022/04/03 05:23:30;;;;;;;;;;;20.80;31.60;;;;;;5027255;28;20347;-59
2022/04/03 05:25:55;;;;;;;;;;;20.80;31.70;;;;;;5029101;28;20019;-59
2022/04/03 05:28:21;;;;;;;;;;;20.80;31.70;;;;;;5037917;28;20404;-59
2022/04/03 05:30:47;;;;;;;;;;;20.70;31.70;;;;;;5043223;28;19913;-59
2022/04/03 05:33:14;;;;;;;;;;;20.70;31.80;;;;;;5029888;28;19917;-59
2022/04/03 05:35:39;;;;;;;;;;;20.70;31.80;;;;;;5042707;28;19986;-59
2022/04/03 05:38:05;;;;;;;;;;;20.70;31.70;;;;;;5027354;28;19992;-59
2022/04/03 05:40:30;;;;;;;;;;;20.80;31.70;;;;;;5026448;28;19920;-59
2022/04/03 05:42:56;;;;;;;;;;;20.70;31.70;;;;;;5045900;28;19917;-59
2022/04/03 05:45:21;;;;;;;;;;;20.80;31.70;;;;;;5040852;28;19921;-59
2022/04/03 05:47:47;;;;;;;;;;;20.70;31.70;;;;;;5041969;28;19971;-59
2022/04/03 05:50:14;;;;;;;;;;;20.70;31.70;;;;;;5044026;28;19913;-59
2022/04/03 05:52:50;;;;;;;;;;;20.70;31.70;;;;;;5038965;28;20008;-59
2022/04/03 05:55:16;;;;;;;;;;;20.70;31.60;;;;;;5038872;28;19913;-59
2022/04/03 05:57:42;;;;;;;;;;;20.80;31.70;;;;;;5023570;28;20387;-59
2022/04/03 06:00:12;;;;;;;;;;;20.80;31.60;;;;;;5044474;28;19912;-59
2022/04/03 06:03:00;;;;;;;;;;;20.80;31.60;;;;;;5025911;28;19985;-59
2022/04/03 06:05:29;;;;;;;;;;;20.80;31.60;;;;;;5033207;28;20339;-59
2022/04/03 06:07:55;;;;;;;;;;;20.80;31.60;;;;;;5039115;28;19921;-59
2022/04/03 06:10:21;;;;;;;;;;;20.70;31.60;;;;;;5021751;28;20698;-59
2022/04/03 06:12:53;;;;;;;;;;;20.70;31.60;;;;;;5029463;28;20095;-59
2022/04/03 06:15:18;;;;;;;;;;;20.70;31.60;;;;;;5028166;28;19927;-59
2022/04/03 06:17:44;;;;;;;;;;;20.70;31.70;;;;;;5042059;28;20509;-59
2022/04/03 06:20:09;;;;;;;;;;;20.70;31.70;;;;;;5027007;28;19913;-59
2022/04/03 06:22:35;;;;;;;;;;;20.70;31.80;;;;;;5067047;28;19917;-59
2022/04/03 06:25:00;;;;;;;;;;;20.70;31.90;;;;;;5042561;28;19920;-58
2022/04/03 06:27:27;;;;;;;;;;;20.70;31.90;;;;;;5065187;28;20310;-59
2022/04/03 06:29:53;;;;;;;;;;;20.70;31.90;;;;;;5032180;28;19912;-59
2022/04/03 06:32:18;;;;;;;;;;;20.60;31.90;;;;;;5063789;28;19967;-59
2022/04/03 06:34:44;;;;;;;;;;;20.60;31.90;;;;;;5067880;28;19973;-59
2022/04/03 06:37:09;;;;;;;;;;;20.70;32.10;;;;;;5026755;28;19940;-59
2022/04/03 06:39:35;;;;;;;;;;;20.60;31.90;;;;;;5047914;28;19913;-59
2022/04/03 06:42:00;;;;;;;;;;;20.70;32.00;;;;;;5065895;28;19912;-59
2022/04/03 06:44:26;;;;;;;;;;;20.70;32.00;;;;;;5047731;28;20002;-59
2022/04/03 06:46:52;;;;;;;;;;;20.60;32.00;;;;;;5048864;28;20368;-59
2022/04/03 06:49:17;;;;;;;;;;;20.60;32.00;;;;;;5044760;28;19927;-59
2022/04/03 06:51:42;;;;;;;;;;;20.60;32.10;;;;;;5066724;28;19920;-59
2022/04/03 06:54:08;;;;;;;;;;;20.60;32.20;;;;;;5064945;28;19920;-59
2022/04/03 06:56:33;;;;;;;;;;;20.50;32.10;;;;;;5059318;28;19920;-59
2022/04/03 06:58:59;;;;;;;;;;;20.40;32.20;;;;;;5064225;28;19936;-59
2022/04/03 07:01:24;;;;;;;;;;;20.40;32.20;;;;;;5064681;28;19920;-59
2022/04/03 07:03:50;;;;;;;;;;;20.40;32.20;;;;;;5046463;28;20387;-59
2022/04/03 07:06:15;;;;;;;;;;;20.40;32.30;;;;;;5036843;28;19917;-59
2022/04/03 07:08:43;;;;;;;;;;;20.40;32.20;;;;;;5046252;28;19919;-59
2022/04/03 07:11:08;;;;;;;;;;;20.40;32.20;;;;;;5047239;28;19966;-59
2022/04/03 07:13:34;;;;;;;;;;;20.40;32.20;;;;;;5062903;28;19921;-59
2022/04/03 07:15:59;;;;;;;;;;;20.40;32.30;;;;;;5052649;28;19916;-59
2022/04/03 07:18:25;;;;;;;;;;;20.40;32.30;;;;;;5044017;28;19920;-59
2022/04/03 07:20:50;;;;;;;;;;;20.40;32.20;;;;;;5044472;28;20351;-61
2022/04/03 07:23:16;;;;;;;;;;;20.40;32.10;;;;;;5045977;28;20279;-59
2022/04/03 07:25:41;;;;;;;;;;;20.50;32.10;;;;;;5033571;28;19923;-59
2022/04/03 07:28:07;;;;;;;;;;;20.50;32.00;;;;;;5061474;28;19913;-59
2022/04/03 07:30:32;;;;;;;;;;;20.60;31.90;;;;;;5060816;28;20524;-61
2022/04/03 07:32:58;;;;;;;;;;;20.60;32.00;;;;;;5060236;28;19959;-59
2022/04/03 07:35:25;;;;;;;;;;;20.50;31.90;;;;;;5065822;28;19912;-59
2022/04/03 07:37:51;;;;;;;;;;;20.50;31.90;;;;;;5061805;28;20380;-59
2022/04/03 07:40:16;;;;;;;;;;;20.60;32.10;;;;;;5047503;28;19959;-59
2022/04/03 07:42:42;;;;;;;;;;;20.60;32.00;;;;;;5045411;28;19913;-59
2022/04/03 07:45:08;;;;;;;;;;;20.60;31.90;;;;;;5061867;28;19959;-59
2022/04/03 07:47:33;;;;;;;;;;;20.60;31.90;;;;;;5062647;28;19919;-59
2022/04/03 07:49:59;;;;;;;;;;;20.60;32.00;;;;;;5045079;28;19963;-59
2022/04/03 07:52:24;;;;;;;;;;;20.60;32.00;;;;;;5046100;28;19943;-59
2022/04/03 07:54:50;;;;;;;;;;;20.60;32.00;;;;;;5042971;28;20387;-59
2022/04/03 07:57:19;;;;;;;;;;;20.60;31.90;;;;;;5046907;28;19913;-59
2022/04/03 07:59:44;;;;;;;;;;;20.60;31.90;;;;;;5058327;28;19936;-59
2022/04/03 08:02:10;;;;;;;;;;;20.60;31.90;;;;;;5051628;28;19919;-59
2022/04/03 08:04:35;;;;;;;;;;;20.60;31.90;;;;;;5044823;28;20034;-59
2022/04/03 08:07:00;;;;;;;;;;;20.60;31.90;;;;;;5060880;28;20412;-59
2022/04/03 08:09:26;;;;;;;;;;;20.60;31.90;;;;;;5041691;28;19913;-59
2022/04/03 08:11:51;;;;;;;;;;;20.60;31.90;;;;;;5065201;28;19912;-59
2022/04/03 08:14:18;;;;;;;;;;;20.50;31.90;;;;;;5060919;28;19982;-59
2022/04/03 08:16:43;;;;;;;;;;;20.50;32.00;;;;;;5063001;28;19913;-59
2022/04/03 08:19:09;;;;;;;;;;;20.60;32.10;;;;;;5063019;28;19927;-59
2022/04/03 08:21:34;;;;;;;;;;;20.60;32.10;;;;;;5048291;28;19939;-59
2022/04/03 08:24:00;;;;;;;;;;;20.50;32.10;;;;;;5044047;28;20314;-59
2022/04/03 08:26:26;;;;;;;;;;;20.50;32.10;;;;;;5050397;28;20307;-59
2022/04/03 08:28:53;;;;;;;;;;;20.50;32.20;;;;;;5058686;28;21407;-59
2022/04/03 08:31:20;;;;;;;;;;;20.50;32.20;;;;;;5042883;28;20680;-58
2022/04/03 08:33:47;;;;;;;;;;;20.50;32.10;;;;;;5038666;28;19940;-59
2022/04/03 08:36:13;;;;;;;;;;;20.50;32.00;;;;;;5061072;28;19927;-59
2022/04/03 08:38:39;;;;;;;;;;;20.50;32.00;;;;;;5045705;28;20011;-59
2022/04/03 08:41:04;;;;;;;;;;;20.60;32.00;;;;;;5062096;28;20019;-59
2022/04/03 08:43:32;;;;;;;;;;;20.60;32.00;;;;;;5059610;28;20569;-59
2022/04/03 08:45:57;;;;;;;;;;;20.60;32.00;;;;;;5047443;28;19924;-59
2022/04/03 08:48:23;;;;;;;;;;;20.60;32.20;;;;;;5032265;28;19913;-59
2022/04/03 08:50:49;;;;;;;;;;;20.60;32.10;;;;;;5038564;28;19916;-59
2022/04/03 08:53:15;;;;;;;;;;;20.60;32.00;;;;;;5045732;28;19920;-59
2022/04/03 08:55:40;;;;;;;;;;;20.70;32.10;;;;;;5028763;28;19913;-59
2022/04/03 08:58:06;;;;;;;;;;;20.70;32.00;;;;;;5049247;28;21243;-59
2022/04/03 09:00:34;;;;;;;;;;;20.80;32.00;;;;;;5060167;28;20007;-59
2022/04/03 09:03:00;;;;;;;;;;;20.70;31.90;;;;;;5044829;28;19917;-60
2022/04/03 09:05:34;;;;;;;;;;;20.70;32.00;;;;;;5057984;28;19917;-59
2022/04/03 09:08:02;;;;;;;;;;;20.70;32.50;;;;;;5040600;28;20323;-59
2022/04/03 09:10:28;;;;;;;;;;;20.80;33.00;;;;;;5042410;28;20380;-59
2022/04/03 09:12:53;;;;;;;;;;;20.90;32.80;;;;;;5038464;28;19948;-61
2022/04/03 09:15:19;;;;;;;;;;;21.20;32.50;;;;;;5059131;28;19916;-61
2022/04/03 09:17:45;;;;;;;;;;;21.60;32.20;;;;;;5041687;28;20294;-61
2022/04/03 09:20:15;;;;;;;;;;;21.90;31.80;;;;;;5051346;28;19966;-60
2022/04/03 09:22:44;;;;;;;;;;;22.10;31.50;;;;;;5015584;28;19995;-61
2022/04/03 09:25:11;;;;;;;;;;;22.40;31.20;;;;;;5028548;28;19927;-61
2022/04/03 09:27:53;;;;;;;;;;;22.60;30.90;;;;;;5033044;28;19916;-61
2022/04/03 09:30:19;;;;;;;;;;;22.70;30.70;;;;;;5036113;28;20331;-61
2022/04/03 09:32:48;;;;;;;;;;;22.90;30.50;;;;;;5022626;28;19922;-59
2022/04/03 09:35:14;;;;;;;;;;;23.00;30.50;;;;;;5032640;28;21740;-60
2022/04/03 09:37:43;;;;;;;;;;;23.00;30.60;;;;;;5034918;28;19996;-61
2022/04/03 09:40:09;;;;;;;;;;;23.10;30.70;;;;;;5028615;28;20292;-61
2022/04/03 09:42:34;;;;;;;;;;;23.10;30.70;;;;;;5026360;28;19932;-62
2022/04/03 09:44:59;;;;;;;;;;;23.20;30.80;;;;;;5034299;28;19991;-61
2022/04/03 09:47:26;;;;;;;;;;;23.30;30.80;;;;;;5034114;28;19928;-61
2022/04/03 09:49:52;;;;;;;;;;;23.30;30.90;;;;;;5045141;28;19917;-61
2022/04/03 09:52:33;;;;;;;;;;;23.30;30.90;;;;;;5047210;28;20307;-61
2022/04/03 09:54:58;;;;;;;;;;;23.30;31.10;;;;;;5058271;28;19912;-61
2022/04/03 09:57:24;;;;;;;;;;;23.30;31.20;;;;;;5061298;28;19935;-61
2022/04/03 09:59:53;;;;;;;;;;;23.40;31.20;;;;;;5036150;28;19917;-61
2022/04/03 10:02:19;;;;;;;;;;;23.40;31.20;;;;;;5034957;28;19917;-60
2022/04/03 10:04:45;;;;;;;;;;;23.40;31.20;;;;;;5050974;28;19921;-61
2022/04/03 10:07:13;;;;;;;;;;;23.50;31.30;;;;;;5048994;28;19913;-60
2022/04/03 10:09:46;;;;;;;;;;;23.50;31.30;;;;;;5046479;28;19969;-61
2022/04/03 10:12:13;;;;;;;;;;;23.50;31.20;;;;;;5045912;28;19959;-61
2022/04/03 10:14:39;;;;;;;;;;;23.60;31.30;;;;;;5030591;28;19916;-61
2022/04/03 10:17:04;;;;;;;;;;;23.60;31.20;;;;;;5054443;28;19974;-63
2022/04/03 10:19:30;;;;;;;;;;;23.60;31.30;;;;;;5028962;28;19913;-61
2022/04/03 10:21:55;;;;;;;;;;;23.60;31.30;;;;;;5051086;28;20032;-61
2022/04/03 10:24:23;;;;;;;;;;;23.60;31.40;;;;;;5046686;28;19919;-61
2022/04/03 10:26:59;;;;;;;;;;;23.60;31.30;;;;;;5046069;28;20304;-61
2022/04/03 10:29:24;;;;;;;;;;;23.60;31.30;;;;;;5057149;28;20426;-60
2022/04/03 10:31:54;;;;;;;;;;;23.60;31.30;;;;;;5054968;28;19948;-60
2022/04/03 10:34:20;;;;;;;;;;;23.60;31.30;;;;;;5026161;28;19917;-59
2022/04/03 10:36:46;;;;;;;;;;;23.60;31.60;;;;;;5036541;28;19917;-59
2022/04/03 10:39:11;;;;;;;;;;;23.70;31.70;;;;;;5022295;28;19927;-59
2022/04/03 10:41:39;;;;;;;;;;;23.70;31.80;;;;;;5053292;28;19924;-60
2022/04/03 10:44:18;;;;;;;;;;;23.70;31.70;;;;;;5025103;28;20392;-59
2022/04/03 10:47:05;;;;;;;;;;;23.70;31.70;;;;;;5038966;28;19923;-59
2022/04/03 10:49:37;;;;;;;;;;;23.70;31.90;;;;;;5028389;28;19922;-60
2022/04/03 10:52:03;;;;;;;;;;;23.70;31.90;;;;;;5046660;28;19913;-59
2022/04/03 10:54:31;;;;;;;;;;;23.70;32.00;;;;;;5055989;28;19935;-60
2022/04/03 10:57:16;;;;;;;;;;;23.80;32.00;;;;;;5036235;28;19935;-59
2022/04/03 10:59:41;;;;;;;;;;;23.80;32.00;;;;;;5048811;28;19913;-61
2022/04/03 11:02:16;;;;;;;;;;;23.70;31.90;;;;;;5036059;28;19917;-60
2022/04/03 11:04:41;;;;;;;;;;;23.80;31.90;;;;;;5029738;28;19913;-59
2022/04/03 11:07:13;;;;;;;;;;;23.80;31.90;;;;;;5019269;28;19921;-60
2022/04/03 11:09:45;;;;;;;;;;;23.80;31.90;;;;;;5057269;28;19917;-60
2022/04/03 11:12:11;;;;;;;;;;;23.80;31.90;;;;;;5036554;28;19948;-59
2022/04/03 11:14:55;;;;;;;;;;;23.80;31.90;;;;;;5046697;28;20847;-60
2022/04/03 11:17:39;;;;;;;;;;;23.80;31.80;;;;;;5033678;28;19913;-59
2022/04/03 11:20:05;;;;;;;;;;;23.90;32.00;;;;;;5043362;28;19928;-59
2022/04/03 11:22:31;;;;;;;;;;;23.90;32.10;;;;;;5070062;28;20275;-59
2022/04/03 11:24:56;;;;;;;;;;;23.90;32.50;;;;;;5071143;28;19943;-61
2022/04/03 11:27:22;;;;;;;;;;;24.00;32.80;;;;;;5035474;28;19921;-59
2022/04/03 11:29:49;;;;;;;;;;;24.00;33.00;;;;;;5048054;28;20311;-60
2022/04/03 11:32:15;;;;;;;;;;;24.10;33.20;;;;;;5073457;28;19950;-60
2022/04/03 11:34:40;;;;;;;;;;;24.10;33.30;;;;;;5054293;28;19920;-60
2022/04/03 11:37:06;;;;;;;;;;;24.10;33.20;;;;;;5051290;28;19913;-60
2022/04/03 11:39:38;;;;;;;;;;;24.10;33.10;;;;;;5046689;28;19913;-60
2022/04/03 11:42:07;;;;;;;;;;;24.10;32.90;;;;;;5048687;28;19919;-59
2022/04/03 11:44:34;;;;;;;;;;;24.10;32.80;;;;;;5051215;28;19919;-60
2022/04/03 11:47:00;;;;;;;;;;;24.10;32.80;;;;;;5050923;28;19920;-60
2022/04/03 11:49:26;;;;;;;;;;;24.10;32.80;;;;;;5050092;28;19919;-59
2022/04/03 11:51:52;;;;;;;;;;;24.10;32.70;;;;;;5064329;28;19917;-60
2022/04/03 11:54:17;;;;;;;;;;;24.20;32.80;;;;;;5053985;28;20275;-60
2022/04/03 11:56:43;;;;;;;;;;;24.20;32.80;;;;;;5048862;28;19917;-60
2022/04/03 11:59:09;;;;;;;;;;;24.20;32.80;;;;;;5061838;28;19983;-60
2022/04/03 12:01:36;;;;;;;;;;;24.20;33.00;;;;;;5045691;28;19921;-60
2022/04/03 12:04:02;;;;;;;;;;;24.30;33.20;;;;;;5050561;28;19958;-60
2022/04/03 12:06:31;;;;;;;;;;;24.30;33.30;;;;;;5031544;28;19971;-60
2022/04/03 12:08:57;;;;;;;;;;;24.30;33.40;;;;;;5035350;28;19917;-60
2022/04/03 12:11:24;;;;;;;;;;;24.20;33.50;;;;;;5027953;28;20345;-60
2022/04/03 12:13:53;;;;;;;;;;;24.20;33.50;;;;;;5075687;28;20388;-60
2022/04/03 12:16:29;;;;;;;;;;;24.20;33.50;;;;;;5048050;28;19923;-60
2022/04/03 12:18:56;;;;;;;;;;;24.20;33.50;;;;;;5029380;28;19924;-60
2022/04/03 12:21:22;;;;;;;;;;;24.20;33.30;;;;;;5046474;28;19929;-60
2022/04/03 12:24:03;;;;;;;;;;;24.20;33.30;;;;;;5045763;28;20007;-59
2022/04/03 12:26:29;;;;;;;;;;;24.20;33.20;;;;;;5065426;28;19929;-60
2022/04/03 12:28:55;;;;;;;;;;;24.20;33.10;;;;;;5047999;28;20577;-60
2022/04/03 12:31:25;;;;;;;;;;;24.30;33.20;;;;;;5059483;28;19923;-60
2022/04/03 12:33:50;;;;;;;;;;;24.20;33.00;;;;;;5048479;28;19920;-60
2022/04/03 12:36:16;;;;;;;;;;;24.30;33.10;;;;;;5047405;28;19974;-60
2022/04/03 12:38:48;;;;;;;;;;;24.30;33.00;;;;;;5045284;28;19919;-60
2022/04/03 12:41:13;;;;;;;;;;;24.20;33.20;;;;;;5043953;28;19964;-60
2022/04/03 12:43:43;;;;;;;;;;;24.20;33.00;;;;;;5045154;28;19917;-60
2022/04/03 12:46:08;;;;;;;;;;;24.20;32.90;;;;;;5047541;28;19917;-60
2022/04/03 12:48:34;;;;;;;;;;;24.20;32.80;;;;;;5047704;28;19927;-60
2022/04/03 12:51:05;;;;;;;;;;;24.20;32.70;;;;;;5043953;28;19963;-60
2022/04/03 12:53:31;;;;;;;;;;;24.20;32.70;;;;;;5063615;28;20273;-60
2022/04/03 12:55:57;;;;;;;;;;;24.20;32.70;;;;;;5042921;28;19917;-59
2022/04/03 12:58:32;;;;;;;;;;;24.20;32.80;;;;;;5041176;28;19913;-59
2022/04/03 13:01:06;;;;;;;;;;;24.20;32.90;;;;;;5036614;28;19912;-59
2022/04/03 13:03:37;;;;;;;;;;;24.20;32.80;;;;;;5055260;28;19921;-60
2022/04/03 13:06:03;;;;;;;;;;;24.30;32.90;;;;;;5058089;28;19925;-59
2022/04/03 13:08:39;;;;;;;;;;;24.30;32.90;;;;;;5064242;28;19913;-59
2022/04/03 13:11:05;;;;;;;;;;;24.20;32.50;;;;;;5037194;28;19920;-59
2022/04/03 13:13:30;;;;;;;;;;;24.30;32.50;;;;;;5052354;28;19935;-59
2022/04/03 13:15:57;;;;;;;;;;;24.30;32.40;;;;;;5050773;28;19913;-59
2022/04/03 13:18:22;;;;;;;;;;;24.30;32.30;;;;;;5038752;28;19912;-59
2022/04/03 13:20:51;;;;;;;;;;;24.30;32.20;;;;;;5050401;28;19966;-59
2022/04/03 13:23:17;;;;;;;;;;;24.30;32.20;;;;;;5042615;28;19916;-59
2022/04/03 13:25:43;;;;;;;;;;;24.30;32.10;;;;;;5014228;28;20015;-59
2022/04/03 13:28:08;;;;;;;;;;;24.30;32.00;;;;;;5021966;28;19913;-59
2022/04/03 13:30:34;;;;;;;;;;;24.40;31.90;;;;;;5055391;28;19924;-59
2022/04/03 13:32:59;;;;;;;;;;;24.30;31.70;;;;;;5023191;28;20349;-59
2022/04/03 13:35:25;;;;;;;;;;;24.30;31.60;;;;;;5018313;28;19921;-59
2022/04/03 13:37:51;;;;;;;;;;;24.40;31.60;;;;;;5013968;28;20368;-59
2022/04/03 13:40:17;;;;;;;;;;;24.40;31.50;;;;;;5037248;28;19927;-59
2022/04/03 13:42:42;;;;;;;;;;;24.40;31.50;;;;;;5035096;28;19924;-58
2022/04/03 13:45:08;;;;;;;;;;;24.40;31.40;;;;;;5037736;28;19916;-59
2022/04/03 13:47:33;;;;;;;;;;;24.50;31.40;;;;;;5019772;28;19916;-59
2022/04/03 13:49:59;;;;;;;;;;;24.50;31.30;;;;;;5033703;28;20237;-59
2022/04/03 13:52:24;;;;;;;;;;;24.50;31.30;;;;;;5049347;28;19920;-59
2022/04/03 13:54:50;;;;;;;;;;;24.50;31.30;;;;;;5043190;28;19920;-59
2022/04/03 13:57:15;;;;;;;;;;;24.60;31.30;;;;;;5025357;28;20011;-59
2022/04/03 13:59:41;;;;;;;;;;;24.60;31.30;;;;;;5046897;28;19936;-59
2022/04/03 14:02:06;;;;;;;;;;;24.60;32.00;;;;;;5033610;28;20115;-59
2022/04/03 14:04:32;;;;;;;;;;;24.60;31.20;;;;;;5047773;28;20293;-59
2022/04/03 14:06:57;;;;;;;;;;;24.60;31.20;;;;;;5032475;28;19938;-59
2022/04/03 14:09:22;;;;;;;;;;;24.60;32.00;;;;;;5049294;28;19917;-59
2022/04/03 14:11:48;;;;;;;;;;;24.50;31.50;;;;;;5031008;28;19912;-59
2022/04/03 14:14:14;;;;;;;;;;;24.50;31.60;;;;;;5030713;28;20003;-59
2022/04/03 14:16:39;;;;;;;;;;;24.30;31.90;;;;;;5047298;28;19939;-59